createdAt,value
2022-12-20T00:00:00.226Z,100.00
2022-12-20T00:03:06.291Z,100.00
2022-12-20T00:06:14.616Z,100.00
2022-12-20T00:09:20.859Z,100.00
2022-12-20T00:12:27.553Z,100.00
2022-12-20T00:15:34.328Z,100.00
2022-12-20T00:18:41.899Z,100.00
2022-12-20T00:21:49.898Z,100.00
2022-12-20T00:24:56.050Z,100.00
2022-12-20T00:28:03.309Z,100.00
2022-12-20T00:31:11.364Z,100.00
2022-12-20T00:34:17.511Z,100.00
2022-12-20T00:37:25.004Z,99.25
2022-12-20T00:40:31.355Z,100.00
2022-12-20T00:43:38.178Z,100.00
2022-12-20T00:46:44.843Z,100.00
2022-12-20T00:49:50.989Z,100.00
2022-12-20T00:52:58.646Z,100.00
2022-12-20T00:56:06.687Z,100.00
2022-12-20T00:59:13.179Z,100.00
2022-12-20T01:02:19.842Z,100.00
2022-12-20T01:05:26.166Z,100.00
2022-12-20T01:08:34.475Z,100.00
2022-12-20T01:11:41.152Z,100.00
2022-12-20T01:14:47.642Z,100.00
2022-12-20T01:17:54.082Z,100.00
2022-12-20T01:21:04.940Z,100.00
2022-12-20T01:24:13.074Z,100.00
2022-12-20T01:27:19.487Z,100.00
2022-12-20T01:30:25.987Z,100.00
2022-12-20T01:33:32.303Z,100.00
2022-12-20T01:36:39.602Z,100.00
2022-12-20T01:39:47.585Z,99.71
2022-12-20T01:42:53.871Z,100.00
2022-12-20T01:46:00.595Z,100.00
2022-12-20T01:49:12.022Z,100.00
2022-12-20T01:52:21.775Z,100.00
2022-12-20T01:55:30.228Z,100.00
2022-12-20T01:58:39.420Z,100.00
2022-12-20T02:01:46.456Z,100.00
2022-12-20T02:04:53.036Z,100.00
2022-12-20T02:07:59.124Z,100.00
2022-12-20T02:11:17.163Z,100.00
2022-12-20T02:14:36.939Z,100.00
2022-12-20T02:17:52.158Z,100.00
2022-12-20T02:21:21.001Z,100.00
2022-12-20T02:25:02.228Z,100.00
2022-12-20T02:28:26.214Z,100.00
2022-12-20T02:31:40.082Z,100.00
2022-12-20T02:34:47.164Z,100.00
2022-12-20T02:37:55.620Z,100.00
2022-12-20T02:41:07.643Z,100.00
2022-12-20T02:44:33.565Z,100.00
2022-12-20T02:47:47.898Z,100.00
2022-12-20T02:50:58.028Z,100.00
2022-12-20T02:54:04.622Z,100.00
2022-12-20T02:57:15.733Z,100.00
2022-12-20T03:00:24.550Z,100.00
2022-12-20T03:03:33.637Z,100.00
2022-12-20T03:06:40.959Z,100.00
2022-12-20T03:09:47.572Z,100.00
2022-12-20T03:12:53.997Z,100.00
2022-12-20T03:16:00.280Z,100.00
2022-12-20T03:19:07.734Z,100.00
2022-12-20T03:22:14.183Z,100.00
2022-12-20T03:25:20.263Z,100.00
2022-12-20T03:28:26.668Z,100.00
2022-12-20T03:31:33.108Z,100.00
2022-12-20T03:34:41.180Z,100.00
2022-12-20T03:37:47.565Z,100.00
2022-12-20T03:40:53.822Z,100.00
2022-12-20T03:44:00.264Z,100.00
2022-12-20T03:47:06.686Z,100.00
2022-12-20T03:50:15.435Z,100.00
2022-12-20T03:53:21.675Z,100.00
2022-12-20T03:56:27.785Z,100.00
2022-12-20T03:59:34.238Z,100.00
2022-12-20T04:02:41.182Z,100.00
2022-12-20T04:05:49.353Z,100.00
2022-12-20T04:08:55.814Z,100.00
2022-12-20T04:12:03.042Z,100.00
2022-12-20T04:15:10.318Z,100.00
2022-12-20T04:18:16.617Z,100.00
2022-12-20T04:21:26.651Z,100.00
2022-12-20T04:24:33.301Z,100.00
2022-12-20T04:27:39.510Z,100.00
2022-12-20T04:30:45.763Z,100.00
2022-12-20T04:33:51.932Z,100.00
2022-12-20T04:36:59.471Z,100.00
2022-12-20T04:40:06.232Z,100.00
2022-12-20T04:43:12.680Z,100.00
2022-12-20T04:46:19.882Z,100.00
2022-12-20T04:49:26.382Z,100.00
2022-12-20T04:52:51.406Z,100.00
2022-12-20T04:55:57.582Z,100.00
2022-12-20T04:59:04.276Z,100.00
2022-12-20T05:02:10.573Z,100.00
2022-12-20T05:05:17.106Z,100.00
2022-12-20T05:08:25.524Z,100.00
2022-12-20T05:11:32.158Z,100.00
2022-12-20T05:14:38.688Z,100.00
2022-12-20T05:17:44.957Z,100.00
2022-12-20T05:21:12.751Z,100.00
2022-12-20T05:24:37.794Z,100.00
2022-12-20T05:27:44.084Z,100.00
2022-12-20T05:30:50.398Z,100.00
2022-12-20T05:33:56.605Z,100.00
2022-12-20T05:37:03.159Z,100.00
2022-12-20T05:40:11.859Z,100.00
2022-12-20T05:43:18.843Z,100.00
2022-12-20T05:46:25.397Z,100.00
2022-12-20T05:49:31.734Z,100.00
2022-12-20T05:52:38.245Z,100.00
2022-12-20T05:55:48.701Z,100.00
2022-12-20T05:58:54.857Z,100.00
2022-12-20T06:02:01.383Z,100.00
2022-12-20T06:05:08.140Z,100.00
2022-12-20T06:08:15.394Z,100.00
2022-12-20T06:11:29.645Z,100.00
2022-12-20T06:14:36.354Z,100.00
2022-12-20T06:18:00.852Z,100.00
2022-12-20T06:21:07.593Z,100.00
2022-12-20T06:24:14.298Z,100.00
2022-12-20T06:27:23.109Z,100.00
2022-12-20T06:30:33.843Z,100.00
2022-12-20T06:33:40.297Z,100.00
2022-12-20T06:36:46.941Z,100.00
2022-12-20T06:39:53.240Z,100.00
2022-12-20T06:43:00.678Z,100.00
2022-12-20T06:46:07.392Z,100.00
2022-12-20T06:49:13.880Z,100.00
2022-12-20T06:52:19.969Z,100.00
2022-12-20T06:55:26.434Z,100.00
2022-12-20T06:58:34.375Z,100.00
2022-12-20T07:01:41.014Z,100.00
2022-12-20T07:04:47.338Z,100.00
2022-12-20T07:07:53.681Z,100.00
2022-12-20T07:11:05.614Z,100.00
2022-12-20T07:14:13.615Z,100.00
2022-12-20T07:17:19.919Z,100.00
2022-12-20T07:20:26.075Z,100.00
2022-12-20T07:23:32.496Z,100.00
2022-12-20T07:26:39.091Z,100.00
2022-12-20T07:29:46.827Z,100.00
2022-12-20T07:32:53.099Z,98.64
2022-12-20T07:36:02.444Z,95.17
2022-12-20T07:39:09.285Z,93.68
2022-12-20T07:42:15.693Z,94.96
2022-12-20T07:45:23.471Z,96.33
2022-12-20T07:48:29.887Z,95.30
2022-12-20T07:51:39.522Z,93.52
2022-12-20T07:54:50.752Z,93.13
2022-12-20T07:58:03.084Z,94.28
2022-12-20T08:01:12.745Z,93.86
2022-12-20T08:04:22.328Z,93.27
2022-12-20T08:07:29.575Z,91.34
2022-12-20T08:10:36.450Z,94.30
2022-12-20T08:13:46.538Z,90.96
2022-12-20T08:16:55.479Z,89.95
2022-12-20T08:20:03.642Z,85.31
2022-12-20T08:23:10.039Z,84.36
2022-12-20T08:26:16.515Z,84.21
2022-12-20T08:29:22.685Z,80.77
2022-12-20T08:32:30.713Z,79.12
2022-12-20T08:35:37.139Z,80.09
2022-12-20T08:38:43.510Z,76.62
2022-12-20T08:41:50.546Z,78.13
2022-12-20T08:44:56.596Z,79.42
2022-12-20T08:48:04.725Z,80.67
2022-12-20T08:51:12.702Z,80.05
2022-12-20T08:54:19.348Z,81.14
2022-12-20T08:57:25.691Z,79.33
2022-12-20T09:00:32.023Z,79.10
2022-12-20T09:03:40.559Z,72.56
2022-12-20T09:06:47.061Z,74.97
2022-12-20T09:09:53.174Z,71.11
2022-12-20T09:12:59.189Z,70.63
2022-12-20T09:16:07.635Z,69.68
2022-12-20T09:19:16.040Z,67.98
2022-12-20T09:22:22.425Z,66.52
2022-12-20T09:25:29.793Z,66.66
2022-12-20T09:28:36.457Z,67.21
2022-12-20T09:31:42.969Z,66.06
2022-12-20T09:34:51.411Z,67.16
2022-12-20T09:37:58.332Z,65.15
2022-12-20T09:41:08.261Z,62.11
2022-12-20T09:44:19.479Z,65.68
2022-12-20T09:47:26.638Z,62.45
2022-12-20T09:50:44.921Z,60.69
2022-12-20T09:54:02.611Z,63.52
2022-12-20T09:57:22.048Z,61.50
2022-12-20T10:00:28.411Z,63.55
2022-12-20T10:03:37.307Z,61.26
2022-12-20T10:06:55.739Z,61.98
2022-12-20T10:10:23.045Z,62.26
2022-12-20T10:13:48.017Z,60.45
2022-12-20T10:16:59.930Z,60.00
2022-12-20T10:20:23.934Z,57.27
2022-12-20T10:23:38.775Z,58.40
2022-12-20T10:26:45.034Z,56.25
2022-12-20T10:29:53.072Z,52.33
2022-12-20T10:33:00.135Z,52.95
2022-12-20T10:36:20.663Z,51.46
2022-12-20T10:39:42.909Z,50.03
2022-12-20T10:42:49.241Z,52.59
2022-12-20T10:46:02.084Z,53.70
2022-12-20T10:49:31.393Z,49.94
2022-12-20T10:52:37.833Z,52.38
2022-12-20T10:55:45.671Z,52.00
2022-12-20T10:58:57.943Z,50.78
2022-12-20T11:02:21.428Z,50.54
2022-12-20T11:05:28.213Z,47.52
2022-12-20T11:08:40.766Z,46.91
2022-12-20T11:12:01.623Z,46.72
2022-12-20T11:15:20.555Z,48.04
2022-12-20T11:18:46.864Z,46.77
2022-12-20T11:22:04.865Z,48.29
2022-12-20T11:25:42.019Z,48.83
2022-12-20T11:29:07.629Z,49.36
2022-12-20T11:32:30.206Z,50.27
2022-12-20T11:35:46.806Z,52.58
2022-12-20T11:39:00.249Z,53.38
2022-12-20T11:42:14.945Z,52.99
2022-12-20T11:45:31.531Z,53.79
2022-12-20T11:48:53.162Z,53.93
2022-12-20T11:52:07.259Z,53.97
2022-12-20T11:55:21.822Z,53.34
2022-12-20T11:58:33.922Z,52.45
2022-12-20T12:01:46.116Z,51.10
2022-12-20T12:04:58.118Z,50.89
2022-12-20T12:08:13.465Z,51.17
2022-12-20T12:15:00.023Z,49.54
2022-12-20T12:18:12.998Z,50.47
2022-12-20T12:21:24.276Z,48.40
2022-12-20T12:24:34.738Z,50.18
2022-12-20T12:27:40.987Z,50.56
2022-12-20T12:30:50.223Z,49.25
2022-12-20T12:34:13.304Z,47.76
2022-12-20T12:37:44.622Z,46.03
2022-12-20T12:41:31.307Z,46.59
2022-12-20T12:44:43.909Z,46.10
2022-12-20T12:47:53.822Z,45.31
2022-12-20T12:51:03.327Z,44.50
2022-12-20T12:54:23.539Z,43.36
2022-12-20T12:57:29.569Z,42.80
2022-12-20T13:00:52.670Z,41.97
2022-12-20T13:04:23.616Z,42.15
2022-12-20T13:07:43.893Z,42.96
2022-12-20T13:11:02.852Z,39.53
2022-12-20T13:14:48.519Z,39.98
2022-12-20T13:17:56.194Z,42.23
2022-12-20T13:21:33.503Z,40.98
2022-12-20T13:24:53.717Z,42.34
2022-12-20T13:28:33.099Z,41.01
2022-12-20T13:31:39.445Z,43.04
2022-12-20T13:34:56.927Z,40.67
2022-12-20T13:38:06.215Z,42.44
2022-12-20T13:41:31.095Z,45.66
2022-12-20T13:44:46.728Z,46.28
2022-12-20T13:47:57.418Z,50.95
2022-12-20T13:51:04.114Z,49.45
2022-12-20T13:54:25.051Z,51.07
2022-12-20T13:57:42.219Z,48.49
2022-12-20T14:00:49.914Z,49.95
2022-12-20T14:03:56.709Z,51.26
2022-12-20T14:07:03.985Z,51.02
2022-12-20T14:10:20.943Z,52.11
2022-12-20T14:13:29.328Z,62.33
2022-12-20T14:16:35.708Z,65.49
2022-12-20T14:19:41.735Z,68.37
2022-12-20T14:23:02.573Z,68.99
2022-12-20T14:26:14.313Z,70.29
2022-12-20T14:29:27.212Z,73.35
2022-12-20T14:32:33.768Z,76.45
2022-12-20T14:35:48.476Z,76.94
2022-12-20T14:38:55.128Z,80.46
2022-12-20T14:42:03.962Z,82.40
2022-12-20T14:45:21.480Z,83.51
2022-12-20T14:48:28.007Z,81.15
2022-12-20T14:51:35.319Z,82.31
2022-12-20T14:58:26.053Z,85.15
2022-12-20T15:01:38.387Z,92.54
2022-12-20T15:04:52.585Z,92.07
2022-12-20T15:08:11.707Z,91.01
2022-12-20T15:11:23.027Z,89.27
2022-12-20T15:14:40.982Z,89.20
2022-12-20T15:17:48.851Z,88.16
2022-12-20T15:21:03.014Z,88.12
2022-12-20T15:24:13.660Z,91.88
2022-12-20T15:27:20.291Z,95.64
2022-12-20T15:30:26.953Z,98.83
2022-12-20T15:33:36.556Z,99.42
2022-12-20T15:36:42.904Z,100.00
2022-12-20T15:39:48.850Z,100.00
2022-12-20T15:42:55.444Z,100.00
2022-12-20T15:46:01.746Z,100.00
2022-12-20T15:49:13.667Z,100.00
2022-12-20T15:52:22.049Z,100.00
2022-12-20T15:55:28.274Z,100.00
2022-12-20T15:58:34.683Z,100.00
2022-12-20T16:01:41.485Z,100.00
2022-12-20T16:04:50.629Z,100.00
2022-12-20T16:07:57.135Z,100.00
2022-12-20T16:11:03.563Z,100.00
2022-12-20T16:14:16.754Z,100.00
2022-12-20T16:17:23.169Z,100.00
2022-12-20T16:20:30.826Z,100.00
2022-12-20T16:23:37.137Z,100.00
2022-12-20T16:26:43.518Z,100.00
2022-12-20T16:29:49.571Z,100.00
2022-12-20T16:32:58.907Z,100.00
2022-12-20T16:36:07.138Z,100.00
2022-12-20T16:39:13.474Z,100.00
2022-12-20T16:42:22.402Z,100.00
2022-12-20T16:45:30.966Z,100.00
2022-12-20T16:48:37.569Z,100.00
2022-12-20T16:51:47.209Z,100.00
2022-12-20T16:54:53.871Z,100.00
2022-12-20T16:58:00.352Z,100.00
2022-12-20T17:01:11.353Z,100.00
2022-12-20T17:04:21.560Z,100.00
2022-12-20T17:07:29.178Z,100.00
2022-12-20T17:10:35.312Z,100.00
2022-12-20T17:13:41.381Z,100.00
2022-12-20T17:16:47.445Z,100.00
2022-12-20T17:19:53.855Z,100.00
2022-12-20T17:23:01.645Z,100.00
2022-12-20T17:26:07.964Z,100.00
2022-12-20T17:29:14.910Z,100.00
2022-12-20T17:32:23.170Z,100.00
2022-12-20T17:35:32.151Z,100.00
2022-12-20T17:38:39.673Z,100.00
2022-12-20T17:41:46.724Z,100.00
2022-12-20T17:44:52.912Z,100.00
2022-12-20T17:48:00.140Z,100.00
2022-12-20T17:51:16.084Z,100.00
2022-12-20T17:54:26.854Z,100.00
2022-12-20T17:57:33.595Z,100.00
2022-12-20T18:00:39.888Z,100.00
2022-12-20T18:04:03.550Z,100.00
2022-12-20T18:07:11.096Z,100.00
2022-12-20T18:10:18.865Z,100.00
2022-12-20T18:13:25.604Z,100.00
2022-12-20T18:16:35.142Z,100.00
2022-12-20T18:19:44.009Z,100.00
2022-12-20T18:22:50.364Z,100.00
2022-12-20T18:26:10.329Z,100.00
2022-12-20T18:29:16.740Z,100.00
2022-12-20T18:32:23.442Z,100.00
2022-12-20T18:35:30.472Z,100.00
2022-12-20T18:38:37.650Z,100.00
2022-12-20T18:41:45.323Z,100.00
2022-12-20T18:44:51.884Z,100.00
2022-12-20T18:47:58.171Z,100.00
2022-12-20T18:51:05.855Z,100.00
2022-12-20T18:54:14.123Z,100.00
2022-12-20T18:57:21.983Z,100.00
2022-12-20T19:00:28.807Z,100.00
2022-12-20T19:03:35.354Z,100.00
2022-12-20T19:06:42.036Z,100.00
2022-12-20T19:09:48.296Z,100.00
2022-12-20T19:12:59.376Z,100.00
2022-12-20T19:16:10.077Z,100.00
2022-12-20T19:19:16.458Z,100.00
2022-12-20T19:22:22.698Z,100.00
2022-12-20T19:25:28.779Z,100.00
2022-12-20T19:32:01.372Z,100.00
2022-12-20T19:35:45.059Z,100.00
2022-12-20T19:38:34.310Z,100.00
2022-12-20T19:41:41.062Z,100.00
2022-12-20T19:44:49.034Z,100.00
2022-12-20T19:47:55.539Z,100.00
2022-12-20T19:51:05.623Z,100.00
2022-12-20T19:54:11.847Z,100.00
2022-12-20T19:57:17.939Z,100.00
2022-12-20T20:00:27.526Z,100.00
2022-12-20T20:03:33.858Z,100.00
2022-12-20T20:06:40.235Z,100.00
2022-12-20T20:09:46.839Z,100.00
2022-12-20T20:12:52.982Z,100.00
2022-12-20T20:16:02.948Z,100.00
2022-12-20T20:19:09.811Z,100.00
2022-12-20T20:22:21.011Z,100.00
2022-12-20T20:25:29.079Z,100.00
2022-12-20T20:28:43.741Z,100.00
2022-12-20T20:31:52.370Z,100.00
2022-12-20T20:34:58.597Z,100.00
2022-12-20T20:38:04.907Z,100.00
2022-12-20T20:41:11.019Z,100.00
2022-12-20T20:44:17.577Z,100.00
2022-12-20T20:47:25.507Z,100.00
2022-12-20T20:50:32.209Z,100.00
2022-12-20T21:04:14.460Z,100.00
2022-12-20T21:07:20.748Z,100.00
2022-12-20T21:10:27.291Z,100.00
2022-12-20T21:13:34.169Z,100.00
2022-12-20T21:16:41.829Z,100.00
2022-12-20T21:19:49.575Z,100.00
2022-12-20T21:22:57.464Z,100.00
2022-12-20T21:26:04.068Z,100.00
2022-12-20T21:29:10.716Z,100.00
2022-12-20T21:32:17.020Z,100.00
2022-12-20T21:35:24.891Z,100.00
2022-12-20T21:38:31.534Z,100.00
2022-12-20T21:41:37.542Z,100.00
2022-12-20T21:44:43.852Z,100.00
2022-12-20T21:47:50.191Z,100.00
2022-12-20T21:51:02.754Z,100.00
2022-12-20T21:54:09.138Z,100.00
2022-12-20T21:57:15.428Z,100.00
2022-12-20T22:00:23.213Z,100.00
2022-12-20T22:03:29.590Z,100.00
2022-12-20T22:06:37.129Z,100.00
2022-12-20T22:09:43.538Z,100.00
2022-12-20T22:12:49.812Z,100.00
2022-12-20T22:15:55.945Z,100.00
2022-12-20T22:19:03.680Z,100.00
2022-12-20T22:22:11.646Z,100.00
2022-12-20T22:25:17.897Z,100.00
2022-12-20T22:28:24.133Z,100.00
2022-12-20T22:31:30.678Z,100.00
2022-12-20T22:34:36.584Z,100.00
2022-12-20T22:37:44.191Z,100.00
2022-12-20T22:40:50.398Z,100.00
2022-12-20T22:43:58.435Z,100.00
2022-12-20T22:47:04.447Z,100.00
2022-12-20T22:50:11.770Z,100.00
2022-12-20T22:53:19.293Z,100.00
2022-12-20T22:56:25.723Z,100.00
2022-12-20T22:59:32.657Z,100.00
2022-12-20T23:02:39.030Z,100.00
2022-12-20T23:05:53.481Z,100.00
2022-12-20T23:09:00.841Z,100.00
2022-12-20T23:12:24.368Z,100.00
2022-12-20T23:15:42.920Z,100.00
2022-12-20T23:18:48.977Z,100.00
2022-12-20T23:22:12.643Z,100.00
2022-12-20T23:25:21.725Z,100.00
2022-12-20T23:28:28.074Z,100.00
2022-12-20T23:31:35.495Z,100.00
2022-12-20T23:34:41.866Z,100.00
2022-12-20T23:37:48.900Z,100.00
2022-12-20T23:40:56.781Z,100.00
2022-12-20T23:44:05.067Z,100.00
2022-12-20T23:47:17.137Z,100.00
2022-12-20T23:50:24.908Z,100.00
2022-12-20T23:53:31.438Z,100.00
2022-12-20T23:56:39.261Z,100.00
2022-12-20T23:59:45.746Z,100.00
